Time;durP1;ratioP1;P1;durP2;ratioP2;P2;SDS_P1;SDS_P2;PMS_P1;PMS_P2;Temp;Humidity;BMP_temperature;BMP_pressure;BME280_temperature;BME280_humidity;BME280_pressure;Samples;Min_cycle;Max_cycle;Signal;HPM_P1;HPM_P2
2024/01/09 00:01:12;;;;;;;3.33;2.70;;;;;;;;;;4955146;28;20498;-83
2024/01/09 00:03:41;;;;;;;3.57;2.63;;;;;;;;;;4955139;28;20457;-82
2024/01/09 00:06:07;;;;;;;5.00;2.90;;;;;;;;;;4954924;28;20411;-82
2024/01/09 00:08:33;;;;;;;5.47;2.90;;;;;;;;;;4954885;28;20480;-82
2024/01/09 00:11:02;;;;;;;3.27;2.97;;;;;;;;;;4954941;28;20425;-82
2024/01/09 00:13:28;;;;;;;6.40;3.50;;;;;;;;;;4955044;28;20927;-82
2024/01/09 00:15:54;;;;;;;4.53;3.20;;;;;;;;;;4954749;28;20430;-82
2024/01/09 00:18:20;;;;;;;5.10;2.30;;;;;;;;;;4955030;28;20407;-82
2024/01/09 00:20:46;;;;;;;3.87;2.50;;;;;;;;;;4954590;28;20407;-82
2024/01/09 00:23:12;;;;;;;3.57;2.40;;;;;;;;;;4954755;28;20423;-82
2024/01/09 00:25:38;;;;;;;5.13;2.90;;;;;;;;;;4954901;28;20419;-82
2024/01/09 00:28:04;;;;;;;4.13;2.57;;;;;;;;;;4954650;28;20824;-82
2024/01/09 00:30:30;;;;;;;5.00;3.27;;;;;;;;;;4953497;28;20472;-82
2024/01/09 00:32:55;;;;;;;5.90;3.40;;;;;;;;;;4954714;28;20405;-82
2024/01/09 00:35:21;;;;;;;6.07;2.47;;;;;;;;;;4953832;28;20833;-82
2024/01/09 00:37:47;;;;;;;6.03;3.37;;;;;;;;;;4953489;28;20422;-82
2024/01/09 00:40:13;;;;;;;10.67;2.90;;;;;;;;;;4953453;28;20863;-82
2024/01/09 00:42:39;;;;;;;5.87;3.10;;;;;;;;;;4954770;28;20450;-82
2024/01/09 00:45:07;;;;;;;4.70;2.50;;;;;;;;;;4953642;28;20489;-81
2024/01/09 00:47:33;;;;;;;3.60;2.10;;;;;;;;;;4953431;28;20560;-82
2024/01/09 00:49:59;;;;;;;3.57;2.07;;;;;;;;;;4946254;28;20573;-82
2024/01/09 00:52:24;;;;;;;4.30;2.70;;;;;;;;;;4951690;29;20424;-82
2024/01/09 00:54:50;;;;;;;5.50;2.67;;;;;;;;;;4954549;28;20435;-82
2024/01/09 00:57:16;;;;;;;3.97;3.57;;;;;;;;;;4954474;28;20421;-82
2024/01/09 00:59:45;;;;;;;3.27;2.23;;;;;;;;;;4954575;28;20433;-80
2024/01/09 01:02:11;;;;;;;2.50;1.90;;;;;;;;;;4920553;28;20445;-79
2024/01/09 01:04:38;;;;;;;4.40;2.80;;;;;;;;;;4941682;29;20441;-80
2024/01/09 01:07:04;;;;;;;5.33;3.60;;;;;;;;;;4935301;29;20408;-79
2024/01/09 01:09:30;;;;;;;7.70;3.90;;;;;;;;;;4935137;29;20480;-80
2024/01/09 01:11:56;;;;;;;5.10;2.77;;;;;;;;;;4935240;29;20834;-81
2024/01/09 01:14:23;;;;;;;5.97;2.70;;;;;;;;;;4935248;29;20436;-81
2024/01/09 01:16:49;;;;;;;6.40;2.43;;;;;;;;;;4935334;29;20420;-82
2024/01/09 01:19:18;;;;;;;4.83;2.43;;;;;;;;;;4935124;29;20490;-80
2024/01/09 01:21:44;;;;;;;4.40;2.80;;;;;;;;;;4934938;29;20934;-81
2024/01/09 01:24:10;;;;;;;4.27;2.70;;;;;;;;;;4935079;29;20561;-79
2024/01/09 01:26:37;;;;;;;6.93;3.10;;;;;;;;;;4935123;29;20417;-81
2024/01/09 01:29:03;;;;;;;4.30;2.40;;;;;;;;;;4935597;29;20995;-83
2024/01/09 01:31:29;;;;;;;4.20;3.43;;;;;;;;;;4954201;28;20490;-82
2024/01/09 01:33:55;;;;;;;3.80;3.20;;;;;;;;;;4968968;28;20914;-82
2024/01/09 01:36:21;;;;;;;5.60;3.40;;;;;;;;;;4953684;28;20542;-80
2024/01/09 01:38:47;;;;;;;4.33;2.80;;;;;;;;;;4953682;28;20453;-82
2024/01/09 01:41:13;;;;;;;3.97;2.87;;;;;;;;;;4954007;28;20418;-82
2024/01/09 01:43:38;;;;;;;7.03;3.20;;;;;;;;;;4954044;28;20414;-82
2024/01/09 01:46:05;;;;;;;3.87;3.13;;;;;;;;;;4952870;28;20525;-83
2024/01/09 01:48:32;;;;;;;3.87;2.77;;;;;;;;;;4953959;28;20461;-81
2024/01/09 01:50:58;;;;;;;6.13;3.50;;;;;;;;;;4953597;28;20832;-81
2024/01/09 01:53:27;;;;;;;4.50;2.90;;;;;;;;;;4953916;28;20417;-84
2024/01/09 01:55:53;;;;;;;4.43;3.47;;;;;;;;;;4954101;28;20793;-83
2024/01/09 01:58:19;;;;;;;3.73;2.57;;;;;;;;;;4956013;28;20418;-84
2024/01/09 02:00:45;;;;;;;3.87;2.63;;;;;;;;;;4957460;28;20486;-83
2024/01/09 02:03:12;;;;;;;4.43;3.57;;;;;;;;;;4957346;28;20417;-83
2024/01/09 02:05:38;;;;;;;7.30;3.53;;;;;;;;;;4956031;28;20454;-84
2024/01/09 02:08:07;;;;;;;4.70;2.80;;;;;;;;;;4957374;28;20906;-83
2024/01/09 02:10:33;;;;;;;3.77;2.40;;;;;;;;;;4956061;28;21007;-81
2024/01/09 02:12:59;;;;;;;5.13;2.77;;;;;;;;;;4957532;28;20507;-84
2024/01/09 02:15:25;;;;;;;4.33;3.40;;;;;;;;;;4957412;28;20432;-81
2024/01/09 02:17:51;;;;;;;5.03;3.00;;;;;;;;;;4957479;28;20415;-81
2024/01/09 02:20:22;;;;;;;8.30;3.97;;;;;;;;;;4956070;28;20440;-81
2024/01/09 02:22:48;;;;;;;4.57;2.70;;;;;;;;;;4957257;28;20417;-82
2024/01/09 02:25:14;;;;;;;4.97;2.53;;;;;;;;;;4955825;28;20417;-84
2024/01/09 02:27:42;;;;;;;4.03;2.30;;;;;;;;;;4957011;28;20426;-81
2024/01/09 02:30:09;;;;;;;6.83;2.67;;;;;;;;;;4957209;29;20436;-81
2024/01/09 02:32:35;;;;;;;3.80;2.33;;;;;;;;;;4957220;28;20424;-80
2024/01/09 02:35:01;;;;;;;7.87;2.60;;;;;;;;;;4956590;28;20460;-80
2024/01/09 02:37:27;;;;;;;5.23;2.50;;;;;;;;;;4957168;28;20417;-80
2024/01/09 02:39:53;;;;;;;4.77;2.80;;;;;;;;;;4957097;28;20771;-80
2024/01/09 02:42:19;;;;;;;5.87;2.97;;;;;;;;;;4957032;28;20441;-80
2024/01/09 02:44:45;;;;;;;3.43;2.73;;;;;;;;;;4957010;28;20525;-80
2024/01/09 02:47:10;;;;;;;3.63;2.53;;;;;;;;;;4956884;29;20404;-82
2024/01/09 02:49:36;;;;;;;5.07;2.27;;;;;;;;;;4956514;28;20539;-83
2024/01/09 02:52:02;;;;;;;3.37;2.63;;;;;;;;;;4956850;28;20839;-83
2024/01/09 02:54:28;;;;;;;4.63;3.00;;;;;;;;;;4956845;28;20430;-80
2024/01/09 02:56:54;;;;;;;4.37;3.07;;;;;;;;;;4971709;28;20923;-83
2024/01/09 02:59:20;;;;;;;4.80;2.90;;;;;;;;;;4956776;28;20425;-82
2024/01/09 03:01:46;;;;;;;5.40;3.40;;;;;;;;;;4956655;28;20414;-82
2024/01/09 03:04:12;;;;;;;12.87;3.07;;;;;;;;;;4916040;28;20450;-80
2024/01/09 03:06:38;;;;;;;5.20;3.17;;;;;;;;;;4955099;29;20419;-82
2024/01/09 03:09:04;;;;;;;4.40;2.20;;;;;;;;;;4955591;28;20478;-83
2024/01/09 03:11:30;;;;;;;5.07;3.20;;;;;;;;;;4956605;28;20470;-82
2024/01/09 03:13:56;;;;;;;7.83;4.20;;;;;;;;;;4950688;28;20488;-80
2024/01/09 03:16:21;;;;;;;8.83;3.10;;;;;;;;;;4961167;28;20507;-79
2024/01/09 03:18:48;;;;;;;3.17;2.30;;;;;;;;;;4946967;29;20901;-82
2024/01/09 03:21:14;;;;;;;2.83;2.60;;;;;;;;;;4944859;28;20992;-81
2024/01/09 03:23:40;;;;;;;3.80;2.23;;;;;;;;;;4946500;28;20785;-82
2024/01/09 03:26:06;;;;;;;3.50;2.97;;;;;;;;;;4946652;29;20439;-81
2024/01/09 03:28:32;;;;;;;2.93;2.50;;;;;;;;;;4945011;28;20469;-82
2024/01/09 03:30:58;;;;;;;4.80;2.70;;;;;;;;;;4946667;28;20407;-82
2024/01/09 03:33:24;;;;;;;7.33;2.93;;;;;;;;;;4946235;29;20418;-79
2024/01/09 03:35:50;;;;;;;4.10;2.80;;;;;;;;;;4944666;28;20451;-82
2024/01/09 03:38:15;;;;;;;2.80;2.33;;;;;;;;;;4946803;28;21019;-83
2024/01/09 03:40:41;;;;;;;3.47;2.87;;;;;;;;;;4945788;29;20427;-83
2024/01/09 03:43:07;;;;;;;5.50;3.00;;;;;;;;;;4959922;28;20425;-83
2024/01/09 03:45:33;;;;;;;2.43;1.93;;;;;;;;;;4946672;29;20417;-83
2024/01/09 03:48:05;;;;;;;4.80;3.77;;;;;;;;;;4951858;29;20513;-82
2024/01/09 03:50:31;;;;;;;4.13;3.10;;;;;;;;;;4946765;28;20425;-82
2024/01/09 03:52:57;;;;;;;3.57;3.07;;;;;;;;;;4945070;29;20415;-83
2024/01/09 03:55:25;;;;;;;4.70;3.17;;;;;;;;;;4955799;28;20417;-80
2024/01/09 03:57:51;;;;;;;3.87;3.20;;;;;;;;;;4955611;28;20414;-82
2024/01/09 04:00:17;;;;;;;3.00;2.60;;;;;;;;;;4970456;28;20429;-83
2024/01/09 04:02:43;;;;;;;3.27;2.97;;;;;;;;;;4955538;28;20420;-83
2024/01/09 04:05:09;;;;;;;3.60;3.30;;;;;;;;;;4955256;28;20416;-83
2024/01/09 04:07:35;;;;;;;5.33;3.50;;;;;;;;;;4955493;28;20417;-83
2024/01/09 04:10:01;;;;;;;5.40;3.37;;;;;;;;;;4955338;28;20473;-83
2024/01/09 04:12:29;;;;;;;3.67;2.70;;;;;;;;;;4970325;28;20427;-83
2024/01/09 04:14:55;;;;;;;3.80;3.37;;;;;;;;;;4955402;28;20416;-83
2024/01/09 04:17:21;;;;;;;4.20;2.83;;;;;;;;;;4955500;28;20915;-83
2024/01/09 04:19:47;;;;;;;7.23;3.57;;;;;;;;;;4954882;28;20499;-82
2024/01/09 04:22:13;;;;;;;5.40;3.37;;;;;;;;;;4955296;28;20425;-83
2024/01/09 04:24:39;;;;;;;8.37;3.50;;;;;;;;;;4955261;28;20428;-81
2024/01/09 04:27:05;;;;;;;2.93;2.73;;;;;;;;;;4955262;28;20479;-80
2024/01/09 04:29:31;;;;;;;3.00;2.50;;;;;;;;;;4955103;28;20475;-79
2024/01/09 04:31:57;;;;;;;5.63;3.40;;;;;;;;;;4955271;28;20488;-80
2024/01/09 04:34:23;;;;;;;6.53;3.93;;;;;;;;;;4954807;28;20419;-80
2024/01/09 04:36:48;;;;;;;4.40;2.93;;;;;;;;;;4954941;28;20465;-80
2024/01/09 04:39:14;;;;;;;5.27;3.47;;;;;;;;;;4969954;28;20807;-80
2024/01/09 04:41:40;;;;;;;4.03;3.63;;;;;;;;;;4954983;28;20427;-80
2024/01/09 04:44:06;;;;;;;7.60;3.77;;;;;;;;;;4954987;28;20429;-81
2024/01/09 04:46:32;;;;;;;3.13;2.83;;;;;;;;;;4955070;28;20409;-82
2024/01/09 04:48:58;;;;;;;4.90;3.97;;;;;;;;;;4954683;28;20961;-81
2024/01/09 04:51:24;;;;;;;3.80;3.20;;;;;;;;;;4969812;28;20425;-81
2024/01/09 04:53:50;;;;;;;4.10;3.70;;;;;;;;;;4954985;28;20502;-81
2024/01/09 04:56:17;;;;;;;4.67;3.20;;;;;;;;;;4954837;28;20457;-81
2024/01/09 04:58:42;;;;;;;6.23;3.50;;;;;;;;;;4954846;28;20420;-81
2024/01/09 05:01:12;;;;;;;3.63;3.23;;;;;;;;;;4969548;28;20434;-81
2024/01/09 05:03:37;;;;;;;4.30;3.80;;;;;;;;;;4954837;28;20439;-82
2024/01/09 05:06:04;;;;;;;3.97;3.57;;;;;;;;;;4954488;28;20773;-81
2024/01/09 05:08:29;;;;;;;4.27;3.23;;;;;;;;;;4954634;28;20823;-81
2024/01/09 05:11:07;;;;;;;6.13;3.87;;;;;;;;;;4969557;28;20503;-81
2024/01/09 05:13:33;;;;;;;10.80;4.67;;;;;;;;;;4954815;28;20464;-81
2024/01/09 05:15:59;;;;;;;3.40;3.03;;;;;;;;;;4928671;28;20439;-81
2024/01/09 05:18:25;;;;;;;4.50;3.20;;;;;;;;;;4954649;28;20417;-81
2024/01/09 05:20:51;;;;;;;4.17;2.73;;;;;;;;;;4954366;28;20432;-80
2024/01/09 05:23:17;;;;;;;3.37;2.80;;;;;;;;;;4954625;28;20417;-80
2024/01/09 05:25:43;;;;;;;4.03;3.33;;;;;;;;;;4954652;28;20800;-80
2024/01/09 05:28:09;;;;;;;7.10;4.03;;;;;;;;;;4943947;28;20470;-79
2024/01/09 05:30:35;;;;;;;5.17;3.87;;;;;;;;;;4935360;29;20882;-80
2024/01/09 05:33:01;;;;;;;4.60;2.90;;;;;;;;;;4938362;29;20423;-80
2024/01/09 05:35:27;;;;;;;3.50;3.10;;;;;;;;;;4938625;29;20621;-80
2024/01/09 05:37:53;;;;;;;10.57;5.07;;;;;;;;;;4939071;29;20486;-80
2024/01/09 05:40:19;;;;;;;4.63;3.20;;;;;;;;;;4938948;29;20425;-80
2024/01/09 05:42:45;;;;;;;6.83;2.70;;;;;;;;;;4938880;29;20901;-80
2024/01/09 05:45:11;;;;;;;3.63;2.60;;;;;;;;;;4953557;29;20431;-80
2024/01/09 05:47:37;;;;;;;7.07;3.13;;;;;;;;;;4938774;29;20891;-80
2024/01/09 05:50:03;;;;;;;4.20;3.30;;;;;;;;;;4938425;29;20474;-81
2024/01/09 05:52:29;;;;;;;5.73;3.67;;;;;;;;;;4938706;29;20970;-80
2024/01/09 05:54:55;;;;;;;5.93;2.73;;;;;;;;;;4938685;29;20426;-80
2024/01/09 05:57:21;;;;;;;8.03;4.40;;;;;;;;;;4938666;29;20456;-80
2024/01/09 05:59:47;;;;;;;3.60;2.93;;;;;;;;;;4938668;29;20906;-81
2024/01/09 06:02:13;;;;;;;3.30;3.00;;;;;;;;;;4938494;29;20414;-81
2024/01/09 06:04:39;;;;;;;5.57;2.90;;;;;;;;;;4952901;29;20492;-81
2024/01/09 06:07:05;;;;;;;6.50;3.97;;;;;;;;;;4938570;29;20513;-81
2024/01/09 06:09:31;;;;;;;8.90;4.83;;;;;;;;;;4938436;29;20482;-81
2024/01/09 06:12:00;;;;;;;6.47;4.10;;;;;;;;;;4938505;29;20900;-82
2024/01/09 06:14:25;;;;;;;7.03;3.70;;;;;;;;;;4953082;29;20435;-80
2024/01/09 06:16:51;;;;;;;9.60;4.17;;;;;;;;;;4938377;29;20476;-82
2024/01/09 06:19:17;;;;;;;5.60;3.70;;;;;;;;;;4937978;29;20424;-81
2024/01/09 06:21:43;;;;;;;4.30;3.40;;;;;;;;;;4954880;29;20422;-82
2024/01/09 06:24:09;;;;;;;7.40;3.60;;;;;;;;;;4949120;28;20917;-82
2024/01/09 06:26:35;;;;;;;4.63;3.63;;;;;;;;;;4950663;29;20422;-82
2024/01/09 06:29:01;;;;;;;11.27;5.40;;;;;;;;;;4961858;28;20531;-82
2024/01/09 06:31:27;;;;;;;7.43;3.10;;;;;;;;;;4954440;29;20922;-83
2024/01/09 06:33:53;;;;;;;5.27;4.77;;;;;;;;;;4947800;28;20425;-79
2024/01/09 06:36:22;;;;;;;4.37;3.97;;;;;;;;;;4942741;29;20468;-79
2024/01/09 06:38:47;;;;;;;6.30;4.87;;;;;;;;;;4938127;29;20429;-79
2024/01/09 06:41:13;;;;;;;5.93;4.27;;;;;;;;;;4937902;29;20934;-79
2024/01/09 06:43:39;;;;;;;3.90;3.50;;;;;;;;;;4937631;29;20421;-79
2024/01/09 06:46:05;;;;;;;5.93;4.50;;;;;;;;;;4937859;29;20425;-79
2024/01/09 06:48:31;;;;;;;4.93;3.20;;;;;;;;;;4897506;28;20480;-79
2024/01/09 06:50:57;;;;;;;5.77;4.07;;;;;;;;;;4937203;29;20788;-79
2024/01/09 06:53:24;;;;;;;7.73;4.30;;;;;;;;;;4937646;29;20427;-79
2024/01/09 06:55:52;;;;;;;7.67;5.40;;;;;;;;;;4937366;29;20945;-79
2024/01/09 06:58:18;;;;;;;7.57;4.33;;;;;;;;;;4937164;29;20506;-79
2024/01/09 07:00:44;;;;;;;6.20;4.80;;;;;;;;;;4942035;29;20466;-79
2024/01/09 07:03:10;;;;;;;5.90;5.17;;;;;;;;;;4956546;28;20457;-79
2024/01/09 07:05:36;;;;;;;4.60;4.00;;;;;;;;;;4956129;28;20416;-78
2024/01/09 07:08:03;;;;;;;6.67;4.03;;;;;;;;;;4956214;28;20940;-79
2024/01/09 07:10:29;;;;;;;6.23;5.60;;;;;;;;;;4956360;28;20420;-78
2024/01/09 07:12:55;;;;;;;11.00;4.87;;;;;;;;;;4956345;28;20771;-78
2024/01/09 07:15:21;;;;;;;9.33;5.50;;;;;;;;;;4956398;28;20405;-79
2024/01/09 07:17:47;;;;;;;6.60;4.23;;;;;;;;;;4955181;29;20416;-79
2024/01/09 07:20:13;;;;;;;8.47;5.50;;;;;;;;;;4955817;28;20429;-80
2024/01/09 07:22:39;;;;;;;5.13;4.63;;;;;;;;;;4956043;28;20495;-80
2024/01/09 07:25:05;;;;;;;7.70;4.03;;;;;;;;;;4956200;29;20421;-80
2024/01/09 07:27:31;;;;;;;10.43;6.10;;;;;;;;;;4956026;29;20888;-80
2024/01/09 07:29:57;;;;;;;9.00;5.53;;;;;;;;;;4955897;28;20477;-80
2024/01/09 07:32:23;;;;;;;5.60;4.00;;;;;;;;;;4956118;28;20427;-80
2024/01/09 07:34:49;;;;;;;4.53;4.03;;;;;;;;;;4955459;28;20433;-79
2024/01/09 07:37:15;;;;;;;9.57;4.20;;;;;;;;;;4956062;28;20897;-80
2024/01/09 07:39:41;;;;;;;8.23;5.83;;;;;;;;;;4955927;28;20780;-80
2024/01/09 07:42:07;;;;;;;6.70;5.10;;;;;;;;;;4955752;29;20980;-80
2024/01/09 07:44:34;;;;;;;9.07;7.03;;;;;;;;;;4947209;28;20415;-80
2024/01/09 07:47:00;;;;;;;12.03;6.40;;;;;;;;;;4952896;28;21001;-80
2024/01/09 07:49:26;;;;;;;7.50;5.77;;;;;;;;;;4933997;28;20928;-80
2024/01/09 07:51:52;;;;;;;5.77;4.60;;;;;;;;;;4937300;28;20406;-80
2024/01/09 07:54:21;;;;;;;11.60;6.60;;;;;;;;;;4954105;28;20417;-79
2024/01/09 07:56:47;;;;;;;6.43;5.17;;;;;;;;;;4955503;28;20417;-80
2024/01/09 07:59:13;;;;;;;9.03;6.40;;;;;;;;;;4955698;28;20801;-80
2024/01/09 08:01:39;;;;;;;7.90;5.93;;;;;;;;;;4955557;28;20461;-80
2024/01/09 08:04:08;;;;;;;9.33;6.80;;;;;;;;;;4955272;28;20452;-80
2024/01/09 08:06:34;;;;;;;14.10;8.23;;;;;;;;;;4955521;28;20423;-80
2024/01/09 08:09:00;;;;;;;9.60;6.00;;;;;;;;;;4953197;28;21005;-79
2024/01/09 08:11:26;;;;;;;9.67;4.87;;;;;;;;;;4953549;28;20428;-80
2024/01/09 08:13:52;;;;;;;11.57;6.13;;;;;;;;;;4936728;29;20461;-81
2024/01/09 08:16:18;;;;;;;9.53;6.20;;;;;;;;;;4936123;29;20765;-80
2024/01/09 08:18:44;;;;;;;14.10;7.63;;;;;;;;;;4935919;29;20429;-80
2024/01/09 08:21:10;;;;;;;13.90;7.67;;;;;;;;;;4935809;29;20422;-80
2024/01/09 08:23:36;;;;;;;17.23;7.13;;;;;;;;;;4936011;29;20934;-80
2024/01/09 08:26:02;;;;;;;15.80;5.50;;;;;;;;;;4936222;29;20979;-81
2024/01/09 08:28:28;;;;;;;6.80;4.83;;;;;;;;;;4936099;29;20552;-81
2024/01/09 08:30:54;;;;;;;9.10;4.90;;;;;;;;;;4936239;29;20946;-81
2024/01/09 08:33:20;;;;;;;5.17;4.63;;;;;;;;;;4935649;29;20919;-83
2024/01/09 08:35:50;;;;;;;8.60;4.67;;;;;;;;;;4935609;29;21042;-82
2024/01/09 08:38:16;;;;;;;8.30;4.67;;;;;;;;;;4935285;29;20411;-83
2024/01/09 08:40:42;;;;;;;8.27;5.30;;;;;;;;;;4935186;29;20476;-80
2024/01/09 08:43:08;;;;;;;7.60;5.27;;;;;;;;;;4935358;29;20407;-80
2024/01/09 08:45:34;;;;;;;8.47;5.90;;;;;;;;;;4933898;29;20427;-82
2024/01/09 08:48:01;;;;;;;4.80;4.40;;;;;;;;;;4935264;29;20417;-81
2024/01/09 08:50:26;;;;;;;8.93;4.67;;;;;;;;;;4934637;29;20450;-80
2024/01/09 08:52:54;;;;;;;15.70;5.77;;;;;;;;;;4896500;28;20444;-81
2024/01/09 08:55:20;;;;;;;8.70;5.23;;;;;;;;;;4934957;29;20783;-81
2024/01/09 08:57:49;;;;;;;7.80;4.70;;;;;;;;;;4949738;29;20423;-80
2024/01/09 09:00:15;;;;;;;8.37;4.33;;;;;;;;;;4935015;29;20821;-81
2024/01/09 09:02:41;;;;;;;8.03;5.30;;;;;;;;;;4934744;29;20416;-81
2024/01/09 09:05:08;;;;;;;3.87;2.60;;;;;;;;;;4933877;29;20467;-80
2024/01/09 09:07:33;;;;;;;7.70;5.07;;;;;;;;;;4937071;29;20423;-79
2024/01/09 09:09:59;;;;;;;7.90;4.70;;;;;;;;;;4938251;29;20534;-79
2024/01/09 09:12:25;;;;;;;5.13;3.90;;;;;;;;;;4938229;29;20417;-79
2024/01/09 09:14:52;;;;;;;5.67;4.40;;;;;;;;;;4938211;29;20414;-80
2024/01/09 09:17:18;;;;;;;8.33;4.80;;;;;;;;;;4938065;29;20416;-80
2024/01/09 09:19:44;;;;;;;7.77;3.40;;;;;;;;;;4937748;29;20452;-80
2024/01/09 09:22:11;;;;;;;4.70;2.90;;;;;;;;;;4938127;29;20412;-80
2024/01/09 09:24:37;;;;;;;5.17;3.67;;;;;;;;;;4938063;29;20892;-80
2024/01/09 09:27:03;;;;;;;6.87;3.67;;;;;;;;;;4938028;29;20420;-80
2024/01/09 09:29:29;;;;;;;6.23;3.70;;;;;;;;;;4937848;29;20469;-80
2024/01/09 09:31:54;;;;;;;5.10;2.87;;;;;;;;;;4937916;29;20406;-80
2024/01/09 09:34:20;;;;;;;7.03;3.53;;;;;;;;;;4937544;29;20423;-80
2024/01/09 09:36:46;;;;;;;4.93;3.07;;;;;;;;;;4918998;29;1010335;-80
2024/01/09 09:39:13;;;;;;;7.67;2.77;;;;;;;;;;4939108;29;20207;-81
2024/01/09 09:41:47;;;;;;;3.60;2.70;;;;;;;;;;4939067;29;20475;-80
2024/01/09 09:44:17;;;;;;;4.00;2.30;;;;;;;;;;4938948;29;20459;-81
2024/01/09 09:46:45;;;;;;;3.90;2.47;;;;;;;;;;4938858;29;20409;-81
2024/01/09 09:49:11;;;;;;;4.43;2.57;;;;;;;;;;4938439;29;20487;-81
2024/01/09 09:51:37;;;;;;;4.20;2.73;;;;;;;;;;4938810;29;20412;-81
2024/01/09 09:54:04;;;;;;;7.23;2.87;;;;;;;;;;4938812;29;20482;-81
2024/01/09 09:56:31;;;;;;;4.93;2.33;;;;;;;;;;4938846;29;20751;-81
2024/01/09 09:58:57;;;;;;;7.63;2.33;;;;;;;;;;4937336;29;20440;-81
2024/01/09 10:01:23;;;;;;;3.10;2.10;;;;;;;;;;4938605;29;20892;-81
2024/01/09 10:03:51;;;;;;;4.30;2.00;;;;;;;;;;4938034;29;20914;-81
2024/01/09 10:06:18;;;;;;;4.37;2.87;;;;;;;;;;4938536;29;20416;-80
2024/01/09 10:08:47;;;;;;;6.70;2.93;;;;;;;;;;4938434;29;20508;-81
2024/01/09 10:11:13;;;;;;;4.60;2.47;;;;;;;;;;4938486;29;20431;-81
2024/01/09 10:13:40;;;;;;;4.57;2.90;;;;;;;;;;4938426;29;20933;-81
2024/01/09 10:16:06;;;;;;;5.87;2.30;;;;;;;;;;4938402;29;20415;-81
2024/01/09 10:18:32;;;;;;;4.20;1.83;;;;;;;;;;4937726;29;20410;-81
2024/01/09 10:20:59;;;;;;;5.10;2.90;;;;;;;;;;4938295;29;20429;-80
2024/01/09 10:23:26;;;;;;;4.20;2.83;;;;;;;;;;4938237;29;20411;-80
2024/01/09 10:25:52;;;;;;;3.70;2.07;;;;;;;;;;4938112;29;20404;-80
2024/01/09 10:28:18;;;;;;;4.30;1.73;;;;;;;;;;4937992;29;20520;-81
2024/01/09 10:30:45;;;;;;;3.73;1.90;;;;;;;;;;4938114;29;20515;-80
2024/01/09 10:33:12;;;;;;;3.10;1.67;;;;;;;;;;4937782;29;20437;-80
2024/01/09 10:35:38;;;;;;;3.73;2.27;;;;;;;;;;4937821;29;20467;-80
2024/01/09 10:38:04;;;;;;;3.67;2.33;;;;;;;;;;4938068;29;20411;-80
2024/01/09 10:40:30;;;;;;;3.90;2.70;;;;;;;;;;4938055;29;20413;-81
2024/01/09 10:42:56;;;;;;;3.87;2.30;;;;;;;;;;4938041;29;20424;-80
2024/01/09 10:45:24;;;;;;;5.47;3.00;;;;;;;;;;4937858;29;20425;-80
2024/01/09 10:47:53;;;;;;;4.20;2.70;;;;;;;;;;4937834;29;20424;-81
2024/01/09 10:50:20;;;;;;;3.17;2.13;;;;;;;;;;4937383;29;21027;-83
2024/01/09 10:52:47;;;;;;;6.07;2.33;;;;;;;;;;4937719;29;20476;-84
2024/01/09 10:55:15;;;;;;;2.97;2.00;;;;;;;;;;4937342;29;20510;-80
2024/01/09 10:57:42;;;;;;;4.87;1.67;;;;;;;;;;4937554;29;20414;-81
2024/01/09 11:00:10;;;;;;;2.23;1.60;;;;;;;;;;4937632;29;20778;-81
2024/01/09 11:02:36;;;;;;;4.83;2.13;;;;;;;;;;4937526;29;20428;-81
2024/01/09 11:05:12;;;;;;;2.13;0.93;;;;;;;;;;4937236;29;20475;-82
2024/01/09 11:07:38;;;;;;;3.80;1.33;;;;;;;;;;4937507;29;20451;-81
2024/01/09 11:10:04;;;;;;;3.90;1.60;;;;;;;;;;4937333;29;20480;-82
2024/01/09 11:12:38;;;;;;;4.20;1.73;;;;;;;;;;4937369;29;20485;-82
2024/01/09 11:15:12;;;;;;;5.33;1.60;;;;;;;;;;4937360;29;20435;-82
2024/01/09 11:17:39;;;;;;;2.70;1.17;;;;;;;;;;4937270;29;20936;-82
2024/01/09 11:20:06;;;;;;;1.57;0.90;;;;;;;;;;4936899;29;20428;-82
2024/01/09 11:22:36;;;;;;;1.90;1.00;;;;;;;;;;4937235;29;20418;-81
2024/01/09 11:25:03;;;;;;;2.30;1.07;;;;;;;;;;4939113;29;20436;-81
2024/01/09 11:27:39;;;;;;;3.33;1.17;;;;;;;;;;4955400;29;20452;-81
2024/01/09 11:30:05;;;;;;;2.20;1.80;;;;;;;;;;4955014;28;20474;-81
2024/01/09 11:32:33;;;;;;;3.90;1.23;;;;;;;;;;4955659;28;20781;-81
2024/01/09 11:35:18;;;;;;;2.63;0.80;;;;;;;;;;4955118;28;20454;-81
2024/01/09 11:37:48;;;;;;;4.00;1.50;;;;;;;;;;4955464;28;20463;-81
2024/01/09 11:40:15;;;;;;;1.83;1.17;;;;;;;;;;4955089;28;20480;-81
2024/01/09 11:42:48;;;;;;;3.30;1.23;;;;;;;;;;4955304;28;20425;-81
2024/01/09 11:45:21;;;;;;;2.07;0.87;;;;;;;;;;4955445;28;20423;-81
2024/01/09 11:47:47;;;;;;;2.57;1.00;;;;;;;;;;4955197;28;20420;-80
2024/01/09 11:50:13;;;;;;;1.80;0.50;;;;;;;;;;4953031;28;20569;-83
2024/01/09 11:52:41;;;;;;;1.43;0.97;;;;;;;;;;4953968;28;20488;-83
2024/01/09 11:55:08;;;;;;;2.47;0.60;;;;;;;;;;4953988;28;21005;-82
2024/01/09 11:57:38;;;;;;;2.40;0.53;;;;;;;;;;4955346;28;20425;-83
2024/01/09 12:00:05;;;;;;;2.10;0.97;;;;;;;;;;4955355;28;20504;-87
2024/01/09 12:02:33;;;;;;;2.60;1.17;;;;;;;;;;4955224;28;20496;-81
2024/01/09 12:05:00;;;;;;;3.40;1.37;;;;;;;;;;4954651;28;20860;-81
2024/01/09 12:07:26;;;;;;;2.57;1.00;;;;;;;;;;4953934;28;20453;-82
2024/01/09 12:09:52;;;;;;;3.40;1.33;;;;;;;;;;4915302;28;20476;-82
2024/01/09 12:12:22;;;;;;;1.57;0.77;;;;;;;;;;4954868;28;20509;-82
2024/01/09 12:14:55;;;;;;;1.80;1.20;;;;;;;;;;4954013;29;20277;-81
2024/01/09 12:17:27;;;;;;;3.63;2.30;;;;;;;;;;4954884;28;20826;-81
2024/01/09 12:19:53;;;;;;;4.37;2.07;;;;;;;;;;4954542;28;20494;-81
2024/01/09 12:22:22;;;;;;;5.13;2.20;;;;;;;;;;4954838;28;20941;-81
2024/01/09 12:24:50;;;;;;;2.50;2.00;;;;;;;;;;4954730;28;20513;-82
2024/01/09 12:27:17;;;;;;;3.67;2.73;;;;;;;;;;4954671;28;20419;-82
2024/01/09 12:29:44;;;;;;;4.17;2.53;;;;;;;;;;4954567;28;20987;-82
2024/01/09 12:32:11;;;;;;;2.33;1.57;;;;;;;;;;4954747;28;20480;-81
2024/01/09 12:34:38;;;;;;;3.20;2.20;;;;;;;;;;4954315;28;20760;-81
2024/01/09 12:37:08;;;;;;;3.40;1.87;;;;;;;;;;4954698;28;20420;-82
2024/01/09 12:39:35;;;;;;;5.00;2.50;;;;;;;;;;4954741;28;20420;-82
2024/01/09 12:42:11;;;;;;;5.90;3.03;;;;;;;;;;4954415;28;20846;-81
2024/01/09 12:44:46;;;;;;;6.30;3.83;;;;;;;;;;4954068;28;20431;-84
2024/01/09 12:47:15;;;;;;;7.50;3.83;;;;;;;;;;4954757;28;20599;-84
2024/01/09 12:49:45;;;;;;;6.57;4.30;;;;;;;;;;4954369;28;20470;-83
2024/01/09 12:52:11;;;;;;;9.80;5.43;;;;;;;;;;4953315;28;20430;-83
2024/01/09 12:54:37;;;;;;;5.57;4.20;;;;;;;;;;4954599;28;20416;-82
2024/01/09 12:57:03;;;;;;;6.10;3.93;;;;;;;;;;4953504;28;20417;-82
2024/01/09 12:59:29;;;;;;;8.13;5.57;;;;;;;;;;4953598;28;20438;-83
2024/01/09 13:01:58;;;;;;;11.03;5.70;;;;;;;;;;4954720;28;20420;-85
2024/01/09 13:04:24;;;;;;;9.40;6.23;;;;;;;;;;4954316;28;20988;-83
2024/01/09 13:06:50;;;;;;;5.67;5.10;;;;;;;;;;4953598;28;20420;-82
2024/01/09 13:09:19;;;;;;;8.60;5.20;;;;;;;;;;4954602;28;20482;-83
2024/01/09 13:11:48;;;;;;;8.60;5.50;;;;;;;;;;4913709;28;20442;-82
2024/01/09 13:14:14;;;;;;;11.07;4.73;;;;;;;;;;4954865;29;20426;-80
2024/01/09 13:16:40;;;;;;;8.70;4.87;;;;;;;;;;4969675;28;20792;-80
2024/01/09 13:19:06;;;;;;;8.17;4.60;;;;;;;;;;4954373;28;20886;-80
2024/01/09 13:21:33;;;;;;;9.80;5.23;;;;;;;;;;4954596;28;20806;-81
2024/01/09 13:23:59;;;;;;;5.57;4.00;;;;;;;;;;4954871;29;20468;-81
2024/01/09 13:26:26;;;;;;;6.50;3.63;;;;;;;;;;4964855;28;20445;-82
2024/01/09 13:28:52;;;;;;;4.90;4.03;;;;;;;;;;4940620;28;20471;-83
2024/01/09 13:31:18;;;;;;;5.23;3.60;;;;;;;;;;4950287;29;20424;-81
2024/01/09 13:33:44;;;;;;;8.30;3.77;;;;;;;;;;4948734;28;20793;-82
2024/01/09 13:36:10;;;;;;;4.13;3.70;;;;;;;;;;4945647;28;20465;-82
2024/01/09 13:38:36;;;;;;;6.33;3.63;;;;;;;;;;4938093;29;20497;-82
2024/01/09 13:41:04;;;;;;;4.70;2.70;;;;;;;;;;4935596;29;20926;-82
2024/01/09 13:43:30;;;;;;;7.67;5.07;;;;;;;;;;4939274;29;20468;-80
2024/01/09 13:46:01;;;;;;;5.20;3.70;;;;;;;;;;4952737;29;20420;-82
2024/01/09 13:48:27;;;;;;;6.70;4.30;;;;;;;;;;4952731;29;20436;-81
2024/01/09 13:50:53;;;;;;;7.97;4.70;;;;;;;;;;4954564;28;20809;-82
2024/01/09 13:53:19;;;;;;;6.47;3.93;;;;;;;;;;4956610;28;20430;-81
2024/01/09 13:55:48;;;;;;;7.10;3.33;;;;;;;;;;4958432;28;20416;-80
2024/01/09 13:58:15;;;;;;;10.00;5.80;;;;;;;;;;4957738;28;20497;-81
2024/01/09 14:00:41;;;;;;;9.90;5.57;;;;;;;;;;4958148;28;20421;-82
2024/01/09 14:03:08;;;;;;;9.13;4.93;;;;;;;;;;4957391;28;20484;-82
2024/01/09 14:05:34;;;;;;;9.50;5.37;;;;;;;;;;4957006;28;20420;-81
2024/01/09 14:08:00;;;;;;;6.60;5.40;;;;;;;;;;4957567;29;20416;-84
2024/01/09 14:10:26;;;;;;;5.43;3.97;;;;;;;;;;4956248;28;20847;-81
2024/01/09 14:12:59;;;;;;;5.97;4.27;;;;;;;;;;4957594;28;20979;-84
2024/01/09 14:15:25;;;;;;;9.07;5.20;;;;;;;;;;4957616;28;20423;-83
2024/01/09 14:17:51;;;;;;;10.57;6.13;;;;;;;;;;4955978;28;20428;-80
2024/01/09 14:20:20;;;;;;;10.00;6.53;;;;;;;;;;4957238;28;20421;-82
2024/01/09 14:22:46;;;;;;;9.17;6.47;;;;;;;;;;4955725;28;20777;-78
2024/01/09 14:25:12;;;;;;;8.17;6.47;;;;;;;;;;4956334;28;20533;-77
2024/01/09 14:27:41;;;;;;;9.10;5.37;;;;;;;;;;4955418;29;20461;-82
2024/01/09 14:30:07;;;;;;;7.70;4.83;;;;;;;;;;4955747;29;20893;-82
2024/01/09 14:32:34;;;;;;;13.17;7.10;;;;;;;;;;4956325;28;20434;-78
2024/01/09 14:35:00;;;;;;;7.60;5.23;;;;;;;;;;4950626;29;21056;-79
2024/01/09 14:37:29;;;;;;;9.60;6.00;;;;;;;;;;4963851;28;20931;-78
2024/01/09 14:39:58;;;;;;;7.90;6.50;;;;;;;;;;4956550;28;20760;-77